Time;durP1;ratioP1;P1;durP2;ratioP2;P2;SDS_P1;SDS_P2;PMS_P1;PMS_P2;Temp;Humidity;BMP_temperature;BMP_pressure;BME280_temperature;BME280_humidity;BME280_pressure;Samples;Min_cycle;Max_cycle;Signal;HPM_P1;HPM_P2
2021/10/16 00:02:08;;;;;;;4.90;4.33;;;;;;;15.01;53.12;99565.56;4980247;23;20229;-80
2021/10/16 00:05:01;;;;;;;4.87;4.40;;;;;;;14.82;53.14;99541.56;4958824;23;20248;-81
2021/10/16 00:08:15;;;;;;;4.87;4.40;;;;;;;15.02;53.08;99575.28;4978493;23;20286;-80
2021/10/16 00:11:15;;;;;;;5.83;4.70;;;;;;;15.02;53.10;99576.09;4976251;23;20240;-80
2021/10/16 00:13:43;;;;;;;5.57;4.50;;;;;;;14.95;53.18;99564.66;4968029;23;20294;-80
2021/10/16 00:16:36;;;;;;;5.53;4.30;;;;;;;15.08;53.08;99572.38;4968754;23;20220;-80
2021/10/16 00:19:48;;;;;;;3.90;3.60;;;;;;;15.13;52.78;99579.72;4981990;23;20264;-80
2021/10/16 00:22:37;;;;;;;5.83;4.40;;;;;;;15.00;53.62;99567.44;4989478;23;20220;-80
2021/10/16 00:25:21;;;;;;;5.60;4.20;;;;;;;15.09;52.70;99575.91;4963863;23;20229;-80
2021/10/16 00:27:51;;;;;;;4.40;4.00;;;;;;;15.10;52.93;99577.53;4950166;23;20235;-80
2021/10/16 00:30:17;;;;;;;4.97;4.47;;;;;;;15.03;53.23;99571.50;4959369;28;20199;-80
2021/10/16 00:32:49;;;;;;;4.80;4.40;;;;;;;15.04;52.53;99573.13;4959690;29;20263;-80
2021/10/16 00:35:21;;;;;;;6.20;4.50;;;;;;;15.06;52.80;99566.44;4959682;29;20276;-80
2021/10/16 00:37:51;;;;;;;5.30;4.70;;;;;;;15.10;52.75;99578.38;4978112;23;20237;-81
2021/10/16 00:40:18;;;;;;;4.50;4.10;;;;;;;15.09;53.26;99562.41;4966189;23;20217;-80
2021/10/16 00:43:09;;;;;;;4.70;4.23;;;;;;;15.21;53.32;99582.81;4946862;23;20981;-80
2021/10/16 00:45:38;;;;;;;5.27;4.77;;;;;;;15.26;53.01;99568.56;4979214;23;20221;-80
2021/10/16 00:48:05;;;;;;;5.50;4.90;;;;;;;15.21;52.96;99571.22;4948403;23;20233;-81
2021/10/16 00:50:32;;;;;;;5.20;4.70;;;;;;;15.30;52.60;99567.00;4971345;23;20213;-80
2021/10/16 00:52:59;;;;;;;4.90;4.40;;;;;;;15.32;53.45;99570.25;4972636;23;20248;-80
2021/10/16 00:55:34;;;;;;;6.53;4.80;;;;;;;15.39;52.83;99581.69;4964378;23;20225;-80
2021/10/16 00:58:03;;;;;;;5.37;4.43;;;;;;;15.32;53.47;99579.19;4955945;29;20184;-81
2021/10/16 01:00:59;;;;;;;5.87;4.90;;;;;;;15.26;53.63;99574.78;4974355;23;20263;-80
2021/10/16 01:03:42;;;;;;;5.23;4.73;;;;;;;15.24;53.61;99579.63;4982792;23;20230;-81
2021/10/16 01:06:14;;;;;;;5.70;5.10;;;;;;;15.38;53.42;99580.88;4958288;29;20236;-80
2021/10/16 01:08:42;;;;;;;6.87;5.13;;;;;;;15.38;53.22;99580.06;4988587;23;20225;-80
2021/10/16 01:11:56;;;;;;;5.70;4.90;;;;;;;15.42;53.38;99575.78;4951055;23;20247;-80
2021/10/16 01:14:23;;;;;;;5.90;4.57;;;;;;;15.54;52.91;99583.78;4974818;29;20212;-80
2021/10/16 01:16:53;;;;;;;5.20;4.70;;;;;;;15.54;53.45;99583.78;4966087;23;20243;-80
2021/10/16 01:19:36;;;;;;;5.30;4.87;;;;;;;15.57;53.48;99583.28;4972887;23;20240;-80
2021/10/16 01:22:14;;;;;;;5.60;4.97;;;;;;;15.65;53.05;99583.63;4936076;29;20225;-80
2021/10/16 01:24:51;;;;;;;5.77;5.17;;;;;;;15.57;53.58;99577.88;4950704;23;20247;-80
2021/10/16 01:27:20;;;;;;;5.57;4.90;;;;;;;15.62;53.24;99581.47;4958204;29;20237;-79
2021/10/16 01:29:50;;;;;;;5.03;4.53;;;;;;;15.63;53.73;99583.06;4962524;23;20259;-80
2021/10/16 01:32:37;;;;;;;6.37;5.00;;;;;;;15.68;53.80;99583.13;4980097;23;20211;-80
2021/10/16 01:35:10;;;;;;;5.73;4.50;;;;;;;15.71;53.59;99588.03;4924304;29;20220;-80
2021/10/16 01:37:52;;;;;;;5.33;4.33;;;;;;;15.74;53.79;99584.00;4952448;23;20221;-80
2021/10/16 01:40:23;;;;;;;5.97;4.70;;;;;;;15.71;53.95;99584.53;4964620;23;20236;-80
2021/10/16 01:42:58;;;;;;;5.60;4.77;;;;;;;15.79;53.72;99584.88;4980843;23;20236;-80
2021/10/16 01:45:39;;;;;;;5.40;4.70;;;;;;;15.91;53.68;99592.81;4965570;23;20201;-79
2021/10/16 01:48:10;;;;;;;4.87;4.37;;;;;;;15.96;53.77;99584.75;4943743;28;20238;-80
2021/10/16 01:50:45;;;;;;;5.23;4.73;;;;;;;15.93;53.50;99581.75;4981153;23;20303;-80
2021/10/16 01:53:43;;;;;;;4.90;4.40;;;;;;;15.99;53.70;99588.84;4980831;23;20219;-80
2021/10/16 01:56:50;;;;;;;5.20;4.70;;;;;;;16.11;53.38;99603.81;4943359;23;20214;-80
2021/10/16 01:59:22;;;;;;;4.97;4.47;;;;;;;16.09;53.76;99594.34;4955632;29;20221;-80
2021/10/16 02:02:33;;;;;;;5.80;4.17;;;;;;;16.15;53.01;99588.72;4922589;29;20321;-80
2021/10/16 02:05:56;;;;;;;5.20;4.17;;;;;;;16.29;53.62;99603.44;4947040;23;20216;-79
2021/10/16 02:08:45;;;;;;;7.07;4.60;;;;;;;16.30;53.71;99604.25;5073624;23;20299;-79
2021/10/16 02:11:17;;;;;;;5.27;4.20;;;;;;;16.37;53.06;99591.38;4962482;23;20209;-81
2021/10/16 02:14:09;;;;;;;5.10;4.60;;;;;;;16.47;53.56;99599.53;4958352;23;20292;-80
2021/10/16 02:16:46;;;;;;;5.27;4.37;;;;;;;16.49;53.06;99599.28;4974726;23;20288;-79
2021/10/16 02:19:43;;;;;;;4.43;4.00;;;;;;;16.53;53.56;99600.38;5048667;23;20208;-80
2021/10/16 02:22:20;;;;;;;5.47;4.90;;;;;;;16.48;53.38;99598.47;4943418;23;20266;-80
2021/10/16 02:25:07;;;;;;;5.37;4.57;;;;;;;16.61;53.49;99605.38;4979452;23;20225;-80
2021/10/16 02:27:37;;;;;;;5.13;4.63;;;;;;;16.61;53.17;99603.47;4972674;23;20572;-80
2021/10/16 02:30:06;;;;;;;4.90;4.40;;;;;;;16.64;53.12;99611.06;4964070;23;20213;-79
2021/10/16 02:32:35;;;;;;;5.03;4.50;;;;;;;16.61;53.01;99608.88;4981150;23;20281;-80
2021/10/16 02:35:09;;;;;;;5.47;4.30;;;;;;;16.59;53.50;99619.16;4977443;23;20238;-80
2021/10/16 02:37:57;;;;;;;4.70;4.30;;;;;;;16.64;53.48;99621.06;4970978;23;20225;-80
2021/10/16 02:40:43;;;;;;;4.73;4.30;;;;;;;16.68;53.28;99611.38;4976182;23;20256;-79
2021/10/16 02:43:44;;;;;;;5.20;4.70;;;;;;;16.78;53.35;99619.56;4972674;23;20236;-80
2021/10/16 02:46:36;;;;;;;4.33;3.93;;;;;;;16.72;53.13;99618.69;4997661;23;20221;-80
2021/10/16 02:49:11;;;;;;;4.20;3.80;;;;;;;16.79;53.10;99621.19;4968868;23;20288;-80
2021/10/16 02:51:38;;;;;;;6.07;4.53;;;;;;;16.77;52.87;99612.50;4958154;29;20229;-80
2021/10/16 02:57:13;;;;;;;4.63;4.13;;;;;;;16.92;52.59;99625.34;5049478;23;20239;-81
2021/10/16 02:59:57;;;;;;;4.53;4.10;;;;;;;16.83;52.78;99622.31;4992981;23;20236;-80
2021/10/16 03:02:31;;;;;;;4.80;4.40;;;;;;;16.95;52.72;99638.31;4999940;23;20266;-81
2021/10/16 03:04:59;;;;;;;5.30;4.30;;;;;;;17.02;52.60;99634.34;4992565;23;20233;-80
2021/10/16 03:07:26;;;;;;;4.70;4.13;;;;;;;16.94;52.68;99631.28;4958506;29;20252;-80
2021/10/16 03:10:12;;;;;;;4.33;3.93;;;;;;;16.94;52.62;99629.38;4964998;23;20228;-80
2021/10/16 03:12:55;;;;;;;4.30;3.90;;;;;;;16.93;52.83;99622.38;4965299;23;20238;-80
2021/10/16 03:15:23;;;;;;;4.90;4.40;;;;;;;16.96;52.71;99624.53;4999604;23;20229;-79
2021/10/16 03:17:49;;;;;;;4.90;4.40;;;;;;;17.01;52.70;99635.41;4957284;29;20253;-80
2021/10/16 03:20:18;;;;;;;6.13;4.93;;;;;;;17.15;52.58;99642.00;4947441;23;20234;-80
2021/10/16 03:22:55;;;;;;;5.37;4.50;;;;;;;17.22;52.27;99638.25;4956563;29;20203;-80
2021/10/16 03:25:22;;;;;;;5.63;4.70;;;;;;;17.18;52.56;99630.63;4980896;23;20660;-80
2021/10/16 03:27:56;;;;;;;5.63;5.07;;;;;;;17.16;52.63;99640.91;4965009;23;20232;-80
2021/10/16 03:30:39;;;;;;;6.47;5.87;;;;;;;17.24;52.62;99650.44;4967090;23;20238;-80
2021/10/16 03:33:06;;;;;;;6.63;5.43;;;;;;;17.29;52.23;99649.63;4985144;23;20232;-80
2021/10/16 03:35:42;;;;;;;6.43;5.47;;;;;;;17.31;52.39;99648.28;4973023;23;20209;-80
2021/10/16 03:38:11;;;;;;;8.43;5.40;;;;;;;17.45;51.94;99654.06;4956012;23;20222;-80
2021/10/16 03:40:42;;;;;;;6.00;5.40;;;;;;;17.44;51.74;99641.59;4970494;23;20269;-80
2021/10/16 03:43:09;;;;;;;6.17;5.57;;;;;;;17.43;51.89;99629.94;4961898;28;20165;-80
2021/10/16 03:45:44;;;;;;;6.60;5.10;;;;;;;17.50;52.00;99646.75;4965303;23;20232;-80
2021/10/16 03:48:27;;;;;;;5.87;5.27;;;;;;;17.34;52.20;99642.34;4977709;23;20212;-80
2021/10/16 03:51:21;;;;;;;5.63;5.13;;;;;;;17.25;51.98;99649.34;4958624;29;20282;-80
2021/10/16 03:53:48;;;;;;;5.43;4.83;;;;;;;17.46;51.74;99639.41;4979825;23;20225;-81
2021/10/16 03:57:04;;;;;;;5.43;4.93;;;;;;;17.58;51.29;99650.88;4985336;23;20256;-80
2021/10/16 03:59:41;;;;;;;5.87;4.63;;;;;;;17.56;51.29;99650.31;4989824;23;20229;-80
2021/10/16 04:03:09;;;;;;;5.20;4.70;;;;;;;17.60;51.06;99663.09;5002185;23;20275;-80
2021/10/16 04:05:38;;;;;;;5.30;4.67;;;;;;;17.59;51.22;99652.50;4949106;23;20225;-80
2021/10/16 04:08:09;;;;;;;4.97;4.57;;;;;;;17.37;51.76;99654.53;4968710;23;20239;-80
2021/10/16 04:10:38;;;;;;;5.60;4.33;;;;;;;17.64;51.26;99659.88;4962676;23;20222;-80
2021/10/16 04:13:08;;;;;;;4.60;4.20;;;;;;;17.56;51.18;99651.13;4934268;24;20688;-80
2021/10/16 04:15:50;;;;;;;5.07;4.57;;;;;;;17.58;51.22;99664.41;4972488;23;20224;-80
2021/10/16 04:18:31;;;;;;;5.27;4.13;;;;;;;17.25;51.96;99657.47;4962726;23;20253;-80
2021/10/16 04:21:07;;;;;;;4.70;3.47;;;;;;;17.60;51.12;99667.69;4967632;23;20240;-80
2021/10/16 04:23:36;;;;;;;5.17;3.77;;;;;;;17.52;50.92;99666.28;4973240;23;20295;-80
2021/10/16 04:26:06;;;;;;;3.67;3.33;;;;;;;17.16;51.43;99668.00;4977875;28;20235;-80
2021/10/16 04:28:33;;;;;;;4.57;3.43;;;;;;;17.31;51.00;99667.22;4968438;23;20282;-80
2021/10/16 04:31:50;;;;;;;3.60;3.30;;;;;;;17.54;50.26;99674.94;4986885;23;20229;-80
2021/10/16 04:34:23;;;;;;;3.57;3.20;;;;;;;16.90;52.31;99684.28;4990513;23;20252;-80
2021/10/16 04:37:05;;;;;;;3.43;3.13;;;;;;;17.16;51.33;99675.28;4969884;23;20217;-80
2021/10/16 04:39:32;;;;;;;3.67;3.37;;;;;;;17.32;51.03;99687.81;4977657;23;20220;-80
2021/10/16 04:42:32;;;;;;;3.57;3.27;;;;;;;16.94;51.32;99693.53;4993686;23;20208;-80
2021/10/16 04:45:00;;;;;;;3.57;3.27;;;;;;;16.91;51.52;99678.63;4952478;23;20223;-81
2021/10/16 04:47:47;;;;;;;4.07;3.23;;;;;;;17.35;50.52;99691.94;4945484;29;20177;-80
2021/10/16 04:50:14;;;;;;;3.90;3.60;;;;;;;16.99;50.42;99688.16;4989323;23;20229;-80
2021/10/16 04:52:49;;;;;;;3.60;3.30;;;;;;;17.15;50.74;99693.41;4972273;23;20366;-80
2021/10/16 04:55:25;;;;;;;3.73;3.43;;;;;;;17.17;51.13;99693.97;4979588;23;20223;-80
2021/10/16 04:58:15;;;;;;;4.00;3.70;;;;;;;17.27;50.33;99698.63;4957272;23;20232;-80
2021/10/16 05:00:45;;;;;;;4.73;3.70;;;;;;;17.17;50.02;99693.13;4980713;23;20248;-80
2021/10/16 05:03:16;;;;;;;3.83;3.53;;;;;;;16.98;50.94;99692.75;4960832;23;20292;-80
2021/10/16 05:05:47;;;;;;;4.10;3.80;;;;;;;16.81;51.18;99697.50;4977544;23;20362;-80
2021/10/16 05:08:36;;;;;;;3.87;3.57;;;;;;;16.98;50.57;99683.84;4943449;23;20220;-80
2021/10/16 05:11:09;;;;;;;3.67;3.37;;;;;;;17.06;50.47;99692.28;4950107;23;20229;-80
2021/10/16 05:14:10;;;;;;;4.07;3.77;;;;;;;17.10;50.23;99696.09;4965556;23;20229;-80
2021/10/16 05:17:15;;;;;;;4.50;3.77;;;;;;;17.09;50.06;99690.94;4987587;23;20221;-80
2021/10/16 05:20:38;;;;;;;4.10;3.70;;;;;;;16.79;50.37;99690.72;4971243;23;20225;-80
2021/10/16 05:23:08;;;;;;;4.00;3.70;;;;;;;16.91;50.26;99696.75;4975387;29;20292;-80
2021/10/16 05:25:35;;;;;;;4.33;3.73;;;;;;;16.75;49.30;99693.09;4959914;29;20291;-80
2021/10/16 05:28:03;;;;;;;4.13;3.73;;;;;;;16.68;50.56;99684.41;4978651;28;20219;-80
2021/10/16 05:30:44;;;;;;;4.10;3.60;;;;;;;16.77;50.75;99720.72;4988569;23;20212;-80
2021/10/16 05:34:03;;;;;;;3.70;3.40;;;;;;;16.79;50.09;99715.88;4995834;23;20216;-80
2021/10/16 05:36:54;;;;;;;3.70;3.50;;;;;;;16.82;49.99;99717.25;4966921;23;20248;-80
2021/10/16 05:39:43;;;;;;;3.50;3.13;;;;;;;16.80;49.43;99714.00;4978869;23;20223;-80
2021/10/16 05:42:56;;;;;;;4.57;3.53;;;;;;;16.66;49.82;99746.03;4988046;23;20211;-81
2021/10/16 05:46:01;;;;;;;4.17;3.80;;;;;;;16.65;50.09;99731.72;4987729;23;20205;-81
2021/10/16 05:48:55;;;;;;;4.77;3.50;;;;;;;16.89;49.95;99747.63;4973384;23;20285;-80
2021/10/16 05:51:22;;;;;;;3.77;3.47;;;;;;;17.07;49.49;99767.00;4979268;23;20249;-80
2021/10/16 05:53:49;;;;;;;3.90;3.50;;;;;;;16.86;49.89;99759.78;4945333;23;20293;-80
2021/10/16 05:56:18;;;;;;;3.83;3.43;;;;;;;16.94;49.46;99769.28;4958823;23;20229;-80
2021/10/16 05:58:45;;;;;;;3.90;3.50;;;;;;;16.59;49.59;99778.72;4989698;23;21667;-81
2021/10/16 06:01:35;;;;;;;3.97;3.67;;;;;;;16.75;48.95;99784.31;4968687;23;20218;-80
2021/10/16 06:04:05;;;;;;;3.80;3.40;;;;;;;16.84;49.15;99772.75;5141788;23;20232;-80
2021/10/16 06:06:33;;;;;;;4.13;3.50;;;;;;;16.52;49.99;99766.44;4991643;23;20300;-80
2021/10/16 06:09:04;;;;;;;3.77;3.47;;;;;;;16.86;49.87;99796.84;4975072;23;20259;-80
2021/10/16 06:11:49;;;;;;;4.10;3.70;;;;;;;16.25;50.30;99788.03;5063291;23;20239;-80
2021/10/16 06:14:21;;;;;;;3.80;3.50;;;;;;;16.53;49.71;99795.13;4975923;23;20217;-81
2021/10/16 06:17:34;;;;;;;5.60;4.70;;;;;;;16.73;49.17;99807.00;4975636;23;20640;-80
2021/10/16 06:20:30;;;;;;;4.07;3.77;;;;;;;16.95;48.81;99803.41;4958191;23;20271;-80
2021/10/16 06:23:02;;;;;;;5.00;3.70;;;;;;;17.28;48.42;99821.28;4961414;29;20215;-80
2021/10/16 06:26:18;;;;;;;4.13;3.83;;;;;;;17.29;48.19;99818.34;4968890;23;20716;-81
2021/10/16 06:29:08;;;;;;;4.20;3.90;;;;;;;17.12;47.52;99807.63;4935121;23;1450882;-81
2021/10/16 06:31:50;;;;;;;4.73;4.33;;;;;;;16.86;48.98;99818.47;5047090;23;20248;-80
2021/10/16 06:34:24;;;;;;;3.70;3.40;;;;;;;17.03;48.42;99813.78;4958470;23;20293;31
2021/10/16 06:36:57;;;;;;;3.87;3.57;;;;;;;16.89;47.68;99824.19;4981918;23;21858;-80
2021/10/16 06:39:48;;;;;;;4.03;3.57;;;;;;;16.91;48.17;99834.78;5062981;23;20205;-80
2021/10/16 06:42:15;;;;;;;3.60;3.30;;;;;;;16.77;48.26;99834.38;4980388;23;20265;-81
2021/10/16 06:45:35;;;;;;;4.27;3.87;;;;;;;16.36;49.17;99835.78;4956444;23;20514;-81
2021/10/16 06:48:39;;;;;;;3.93;3.63;;;;;;;16.42;49.46;99845.59;4979816;23;20243;-82
2021/10/16 06:51:16;;;;;;;4.80;3.67;;;;;;;16.60;48.75;99831.75;4959757;23;20231;-80
2021/10/16 06:53:45;;;;;;;4.13;3.60;;;;;;;16.34;48.05;99829.78;4978286;29;20613;-80
2021/10/16 06:56:33;;;;;;;4.40;3.93;;;;;;;16.72;48.26;99834.31;4983925;23;20311;-80
2021/10/16 06:59:20;;;;;;;4.50;3.57;;;;;;;17.10;47.29;99846.88;4965154;29;20197;-80
2021/10/16 07:02:27;;;;;;;4.27;3.83;;;;;;;16.98;47.69;99846.22;4991226;23;20208;-80
2021/10/16 07:05:21;;;;;;;4.63;3.40;;;;;;;16.85;46.95;99842.00;4984924;23;20288;-80
2021/10/16 07:07:51;;;;;;;3.70;3.40;;;;;;;17.08;47.45;99857.94;4993246;23;20237;-80
2021/10/16 07:10:39;;;;;;;4.17;3.67;;;;;;;16.72;47.50;99858.66;4971707;23;20256;-81
2021/10/16 07:13:08;;;;;;;3.70;3.23;;;;;;;16.91;47.00;99862.66;4965394;23;20216;-80
2021/10/16 07:16:15;;;;;;;3.70;3.40;;;;;;;17.20;47.04;99867.81;4982552;23;20777;-80
2021/10/16 07:19:11;;;;;;;4.53;3.43;;;;;;;17.35;45.97;99868.75;4977024;28;20272;-80
2021/10/16 07:21:55;;;;;;;4.13;3.73;;;;;;;17.39;46.11;99855.50;4992994;23;20233;-80
2021/10/16 07:24:39;;;;;;;3.47;3.17;;;;;;;16.65;47.59;99858.88;4986769;23;20251;-80
2021/10/16 07:27:24;;;;;;;4.30;3.20;;;;;;;17.04;46.77;99854.13;5028937;23;20220;-80
2021/10/16 07:29:52;;;;;;;3.97;3.40;;;;;;;16.75;46.55;99851.94;4974447;23;20280;-80
2021/10/16 07:32:34;;;;;;;3.43;3.00;;;;;;;17.19;46.23;99869.69;4972851;23;20307;-79
2021/10/16 07:35:11;;;;;;;2.93;2.43;;;;;;;17.17;45.30;99861.81;4955594;23;20228;-80
2021/10/16 07:41:10;;;;;;;3.90;2.50;;;;;;;17.23;45.29;99873.50;4942326;23;20236;-80
2021/10/16 07:43:50;;;;;;;4.63;2.70;;;;;;;17.08;45.40;99870.66;4951695;23;20244;-80
2021/10/16 07:47:04;;;;;;;6.50;4.00;;;;;;;17.49;44.81;99874.56;4986956;23;20224;-80
2021/10/16 07:49:48;;;;;;;4.47;2.67;;;;;;;17.35;44.69;99871.47;4978539;29;20189;-80
2021/10/16 07:52:22;;;;;;;3.97;2.73;;;;;;;16.24;45.80;99872.91;4979471;23;20660;-82
2021/10/16 07:54:53;;;;;;;4.20;2.50;;;;;;;16.95;44.95;99881.91;4972147;29;20235;-82
2021/10/16 07:57:23;;;;;;;4.20;2.40;;;;;;;16.38;45.08;99876.88;4944835;29;20198;-80
2021/10/16 07:59:50;;;;;;;3.50;2.33;;;;;;;17.31;44.21;99875.75;4925822;29;20288;-81
2021/10/16 08:02:17;;;;;;;3.23;2.93;;;;;;;16.95;44.83;99890.84;4941004;29;20210;-81
2021/10/16 08:05:14;;;;;;;3.13;2.60;;;;;;;17.71;43.75;99899.69;4983573;23;20208;-80
2021/10/16 08:07:51;;;;;;;3.53;2.30;;;;;;;17.48;43.49;99881.88;4976135;23;20235;-81
2021/10/16 08:10:31;;;;;;;4.70;2.60;;;;;;;17.64;42.93;99906.41;5063446;23;20255;-80
2021/10/16 08:13:02;;;;;;;3.53;2.27;;;;;;;17.63;42.50;99896.66;4972142;29;20189;-81
2021/10/16 08:15:30;;;;;;;2.50;2.00;;;;;;;18.00;42.40;99903.69;4961537;29;20252;-80
2021/10/16 08:17:59;;;;;;;3.70;2.30;;;;;;;17.84;42.22;99898.41;4966019;29;20287;-80
2021/10/16 08:20:30;;;;;;;3.37;2.20;;;;;;;17.22;43.37;99892.75;4940560;29;20333;-81
2021/10/16 08:23:00;;;;;;;4.17;2.20;;;;;;;17.98;42.10;99902.31;4954177;29;20237;-80
2021/10/16 08:26:06;;;;;;;2.60;1.97;;;;;;;17.83;41.61;99889.47;4959583;23;20220;-79
2021/10/16 08:28:34;;;;;;;2.60;1.93;;;;;;;17.85;41.76;99892.75;4955210;29;20276;-80
2021/10/16 08:31:05;;;;;;;2.27;1.60;;;;;;;18.23;41.32;99904.38;4970165;29;20244;-80
2021/10/16 08:33:37;;;;;;;3.53;1.97;;;;;;;18.35;40.36;99903.06;4977553;23;20185;-80
2021/10/16 08:36:06;;;;;;;2.93;1.73;;;;;;;18.17;40.73;99894.56;4953628;29;20192;-80
2021/10/16 08:38:36;;;;;;;2.60;1.70;;;;;;;18.27;40.53;99895.44;4980803;23;20228;-80
2021/10/16 08:41:25;;;;;;;2.03;1.40;;;;;;;18.25;40.38;99881.31;4969568;29;20292;-80
2021/10/16 08:44:02;;;;;;;1.97;1.37;;;;;;;18.27;40.46;99891.91;4966671;23;20232;-80
2021/10/16 08:46:34;;;;;;;4.00;1.80;;;;;;;18.19;40.43;99881.56;4983824;23;20235;-81
2021/10/16 08:49:18;;;;;;;1.83;1.60;;;;;;;18.58;40.02;99893.69;5047322;23;20245;-80
2021/10/16 08:52:28;;;;;;;2.53;1.83;;;;;;;18.10;40.35;99883.16;4907174;29;20225;-81
2021/10/16 08:55:11;;;;;;;3.63;1.60;;;;;;;17.64;41.07;99869.28;4941669;23;20230;-80
2021/10/16 08:58:01;;;;;;;2.23;1.77;;;;;;;18.37;40.95;99875.69;4933124;29;20232;-80
2021/10/16 09:01:11;;;;;;;3.57;1.73;;;;;;;18.17;40.61;99889.13;4940063;23;20289;-80
2021/10/16 09:03:50;;;;;;;3.33;2.13;;;;;;;18.72;40.44;99886.69;5058816;23;20239;-80
2021/10/16 09:06:58;;;;;;;2.20;1.80;;;;;;;18.40;40.49;99894.13;4917650;23;20365;31
2021/10/16 09:09:30;;;;;;;2.43;1.93;;;;;;;18.56;40.39;99887.75;4882752;29;20221;-81
2021/10/16 09:12:00;;;;;;;2.83;1.83;;;;;;;18.60;40.21;99896.16;4923810;23;20239;-81
2021/10/16 09:14:58;;;;;;;5.50;2.90;;;;;;;18.74;40.06;99895.41;4960862;23;20243;-82
2021/10/16 09:17:33;;;;;;;2.47;2.20;;;;;;;18.82;39.88;99899.50;4961117;23;20229;-81
2021/10/16 09:20:40;;;;;;;3.60;2.23;;;;;;;18.67;40.43;99899.44;4950010;29;20248;-81
2021/10/16 09:23:40;;;;;;;2.30;2.03;;;;;;;18.73;39.83;99899.19;4950982;29;20249;-81
2021/10/16 09:26:16;;;;;;;3.20;2.33;;;;;;;18.29;41.02;99890.56;4931966;29;20262;-80
2021/10/16 09:29:11;;;;;;;2.47;2.27;;;;;;;18.92;40.19;99902.25;4949092;23;20236;-80
2021/10/16 09:31:53;;;;;;;2.80;2.10;;;;;;;19.16;39.91;99897.13;4953397;29;20247;-81
2021/10/16 09:34:26;;;;;;;2.47;2.27;;;;;;;19.45;39.40;99900.19;4960855;28;20236;-81
2021/10/16 09:37:22;;;;;;;3.43;2.13;;;;;;;19.14;39.73;99902.81;4949703;29;20304;-81
2021/10/16 09:40:02;;;;;;;3.23;2.17;;;;;;;19.49;39.40;99899.38;4949090;28;20289;-81
2021/10/16 09:42:40;;;;;;;2.60;2.30;;;;;;;19.52;38.68;99903.44;4943249;28;20237;-81
2021/10/16 09:45:15;;;;;;;3.27;2.43;;;;;;;19.25;39.72;99907.19;4950963;29;20245;-80
2021/10/16 09:47:57;;;;;;;4.47;2.87;;;;;;;19.60;38.71;99905.59;4973001;28;20216;-80
2021/10/16 09:50:33;;;;;;;3.27;2.00;;;;;;;19.79;38.37;99918.38;4972969;23;20235;-80
2021/10/16 09:53:28;;;;;;;2.50;2.00;;;;;;;19.73;38.56;99911.34;4967462;23;20249;-80
2021/10/16 09:55:56;;;;;;;2.83;2.23;;;;;;;19.14;39.31;99908.25;4958792;29;20241;-80
2021/10/16 09:58:43;;;;;;;2.67;2.40;;;;;;;19.90;38.47;99915.66;4964602;23;20293;-80
2021/10/16 10:01:38;;;;;;;4.10;2.70;;;;;;;19.83;38.59;99907.78;4956742;23;20223;-80
2021/10/16 10:04:50;;;;;;;2.83;2.27;;;;;;;19.64;38.56;99901.28;4974962;23;20229;-80
2021/10/16 10:07:53;;;;;;;2.30;2.07;;;;;;;19.54;38.68;99901.28;4989770;23;20235;-80
2021/10/16 10:10:29;;;;;;;2.20;1.97;;;;;;;19.59;38.63;99904.00;4994479;23;20288;-80
2021/10/16 10:13:13;;;;;;;3.83;2.47;;;;;;;19.81;38.09;99901.81;4944180;23;20219;-80
2021/10/16 10:15:50;;;;;;;2.90;2.03;;;;;;;19.85;37.67;99896.63;4964205;23;20235;-80
2021/10/16 10:21:09;;;;;;;4.07;2.23;;;;;;;19.30;38.55;99882.75;4981577;23;20222;-80
2021/10/16 10:23:59;;;;;;;3.07;2.23;;;;;;;19.52;39.00;99887.13;4981871;23;20260;-82
2021/10/16 10:26:45;;;;;;;3.00;2.40;;;;;;;19.90;38.59;99892.00;4953497;23;20241;-80
2021/10/16 10:30:05;;;;;;;3.80;3.50;;;;;;;19.99;38.22;99890.34;4980799;23;20256;-80
2021/10/16 10:33:14;;;;;;;4.37;3.10;;;;;;;19.89;38.13;99887.66;4991466;23;20254;-80
2021/10/16 10:36:04;;;;;;;3.07;2.60;;;;;;;20.29;37.69;99885.94;5083300;23;20228;-80
2021/10/16 10:38:58;;;;;;;2.40;2.20;;;;;;;20.14;36.94;99889.50;5072411;23;20229;-80
2021/10/16 10:41:35;;;;;;;4.20;2.07;;;;;;;20.33;37.08;99884.31;4984633;23;20237;-80
2021/10/16 10:44:49;;;;;;;2.93;2.47;;;;;;;20.15;37.60;99891.16;4971781;23;20233;-80
2021/10/16 10:47:57;;;;;;;2.97;2.67;;;;;;;19.97;37.39;99884.38;4990766;23;20699;-80
2021/10/16 10:50:40;;;;;;;3.03;2.30;;;;;;;20.04;37.08;99867.78;4979838;23;20233;-80
2021/10/16 10:53:54;;;;;;;2.30;2.10;;;;;;;20.23;36.12;99880.50;4990953;23;20257;-80
2021/10/16 10:56:58;;;;;;;2.20;2.00;;;;;;;20.18;36.28;99879.72;4984729;23;20243;-80
2021/10/16 10:59:29;;;;;;;2.60;2.40;;;;;;;20.29;36.01;99875.06;4980258;23;20236;-79
2021/10/16 11:05:46;;;;;;;2.60;2.40;;;;;;;20.29;35.75;99878.59;4979244;23;20234;-80
2021/10/16 11:08:37;;;;;;;3.37;2.23;;;;;;;20.86;35.23;99864.47;4985093;23;20272;-79
2021/10/16 11:11:10;;;;;;;2.40;2.10;;;;;;;20.53;35.48;99860.53;4938253;29;20182;-80
2021/10/16 11:13:39;;;;;;;6.33;2.60;;;;;;;20.09;35.97;99870.47;4937384;29;20242;-80
2021/10/16 11:16:26;;;;;;;3.23;2.40;;;;;;;19.50;36.72;99860.25;4975938;23;20644;-80
2021/10/16 11:19:19;;;;;;;6.50;5.13;;;;;;;20.06;36.38;99858.25;4977146;23;20233;-80
2021/10/16 11:22:00;;;;;;;3.43;2.43;;;;;;;20.32;35.49;99859.03;4900095;29;20239;-80
2021/10/16 11:24:32;;;;;;;2.20;2.00;;;;;;;20.27;34.40;99856.28;4942653;23;20281;-80
2021/10/16 11:27:22;;;;;;;2.40;1.90;;;;;;;21.34;33.25;99846.47;4999262;23;20236;-80
2021/10/16 11:30:18;;;;;;;2.80;2.17;;;;;;;21.03;33.75;99845.84;4959800;29;20220;-80
2021/10/16 11:33:32;;;;;;;2.83;2.33;;;;;;;20.44;34.24;99842.34;4982701;23;20245;-80
2021/10/16 11:36:18;;;;;;;2.73;2.03;;;;;;;20.51;33.64;99834.72;4979449;23;20218;-80
2021/10/16 11:38:54;;;;;;;5.60;2.20;;;;;;;20.72;33.92;99836.22;4981127;23;20292;-79
2021/10/16 11:41:35;;;;;;;4.13;2.50;;;;;;;20.91;33.51;99828.22;4977939;23;20229;-79
2021/10/16 11:44:22;;;;;;;2.67;2.47;;;;;;;20.97;33.94;99830.63;4959897;23;20288;-80
2021/10/16 11:47:07;;;;;;;2.03;1.70;;;;;;;21.36;32.64;99824.38;4978710;23;20252;-80
2021/10/16 11:50:01;;;;;;;3.13;2.33;;;;;;;20.54;32.75;99826.81;4973754;29;20237;-80
2021/10/16 11:53:15;;;;;;;4.30;1.70;;;;;;;21.19;32.28;99810.34;4957632;29;20699;-80
2021/10/16 11:59:32;;;;;;;3.37;2.80;;;;;;;20.83;34.92;99810.56;4967580;23;20282;-80
2021/10/16 12:05:13;;;;;;;3.50;2.30;;;;;;;21.29;31.30;99810.25;4931800;23;20214;-80
2021/10/16 12:07:47;;;;;;;5.97;3.27;;;;;;;21.17;32.22;99799.75;4905910;29;20231;-80
2021/10/16 12:11:09;;;;;;;5.17;3.70;;;;;;;21.53;32.20;99801.06;4938170;29;20227;-80
2021/10/16 12:13:57;;;;;;;4.37;1.90;;;;;;;20.91;32.23;99787.38;4925508;29;20227;-84
2021/10/16 12:16:56;;;;;;;3.07;2.07;;;;;;;21.29;32.14;99796.63;4934118;23;20234;-86
2021/10/16 12:19:47;;;;;;;1.80;1.70;;;;;;;20.37;32.61;99792.88;4961368;23;20257;31
2021/10/16 12:23:00;;;;;;;4.07;1.73;;;;;;;20.82;31.82;99799.97;4899035;29;20227;-80
2021/10/16 12:26:08;;;;;;;2.10;1.90;;;;;;;21.56;32.33;99798.84;4888663;29;20239;-79
2021/10/16 12:28:42;;;;;;;2.20;2.00;;;;;;;21.63;32.65;99797.41;4933150;23;20229;-80
2021/10/16 12:31:10;;;;;;;2.23;1.93;;;;;;;21.80;32.04;99786.03;4875432;29;20230;-89
2021/10/16 12:33:59;;;;;;;2.13;1.93;;;;;;;21.37;32.43;99790.59;4911043;29;20228;-85
2021/10/16 12:36:32;;;;;;;2.50;2.00;;;;;;;21.69;31.61;99787.28;4936585;23;20228;-82
2021/10/16 12:42:30;;;;;;;2.20;2.00;;;;;;;21.51;32.57;99789.59;4946753;23;20229;-85
2021/10/16 12:45:08;;;;;;;2.70;2.10;;;;;;;21.63;31.95;99780.25;4931986;29;20328;-89
2021/10/16 12:47:35;;;;;;;3.40;2.60;;;;;;;20.94;33.47;99782.19;4922176;29;20519;-87
2021/10/16 12:50:06;;;;;;;2.37;2.17;;;;;;;20.67;34.67;99785.34;4947482;29;20249;-80
2021/10/16 12:52:36;;;;;;;3.03;2.30;;;;;;;20.49;34.34;99771.56;4957900;29;20252;-80
2021/10/16 12:55:21;;;;;;;3.50;2.07;;;;;;;21.26;32.82;99775.41;4964054;28;20220;-80
2021/10/16 12:58:07;;;;;;;2.00;1.80;;;;;;;21.83;31.35;99777.31;4952456;29;20276;-90
2021/10/16 13:00:43;;;;;;;3.30;1.93;;;;;;;21.36;29.78;99756.25;4950285;29;20229;-80
2021/10/16 13:03:11;;;;;;;4.17;1.53;;;;;;;21.49;29.94;99769.19;4937972;29;20225;-86
2021/10/16 13:05:38;;;;;;;2.40;2.10;;;;;;;21.39;31.70;99772.84;4936581;29;20698;-89
2021/10/16 13:08:06;;;;;;;3.53;2.10;;;;;;;21.50;31.61;99777.09;4923073;29;20240;-86
2021/10/16 13:10:34;;;;;;;2.20;2.00;;;;;;;21.60;31.51;99759.84;4925186;29;20240;-88